Time;durP1;ratioP1;P1;durP2;ratioP2;P2;SDS_P1;SDS_P2;PMS_P1;PMS_P2;Temp;Humidity;BMP_temperature;BMP_pressure;BME280_temperature;BME280_humidity;BME280_pressure;Samples;Min_cycle;Max_cycle;Signal;HPM_P1;HPM_P2
2022/04/02 00:01:22;;;;;;;5.10;4.40;;;5.80;99.90;;;;;;5068331;28;20223;-79
2022/04/02 00:03:51;;;;;;;4.85;4.25;;;5.80;99.90;;;;;;5066744;28;20258;-78
2022/04/02 00:06:20;;;;;;;4.90;4.40;;;5.80;99.90;;;;;;5063035;28;20223;-80
2022/04/02 00:08:48;;;;;;;3.88;3.25;;;5.70;99.90;;;;;;5062564;28;20209;-79
2022/04/02 00:11:16;;;;;;;4.40;4.00;;;5.80;99.90;;;;;;5060478;28;20262;-79
2022/04/02 00:13:44;;;;;;;4.20;3.40;;;5.70;99.90;;;;;;5069676;28;20867;-79
2022/04/02 00:16:12;;;;;;;4.00;3.70;;;5.70;99.90;;;;;;5065175;28;20246;-79
2022/04/02 00:18:42;;;;;;;4.68;4.00;;;5.60;99.90;;;;;;5068894;28;20294;-78
2022/04/02 00:21:12;;;;;;;4.45;4.05;;;5.70;99.90;;;;;;5063554;28;20308;-79
2022/04/02 00:23:40;;;;;;;4.43;4.00;;;5.70;99.90;;;;;;5066788;28;20207;-79
2022/04/02 00:26:09;;;;;;;3.90;3.60;;;5.90;99.90;;;;;;5069719;28;20284;-80
2022/04/02 00:28:40;;;;;;;3.40;3.10;;;5.70;99.90;;;;;;5063425;28;20200;-77
2022/04/02 00:31:10;;;;;;;3.38;2.90;;;5.70;99.90;;;;;;5069958;28;21000;-78
2022/04/02 00:33:39;;;;;;;4.13;3.72;;;5.70;99.90;;;;;;5071184;28;20252;-78
2022/04/02 00:36:07;;;;;;;2.97;2.78;;;5.70;99.90;;;;;;5067092;28;20191;-79
2022/04/02 00:38:37;;;;;;;2.85;2.63;;;5.80;99.90;;;;;;5064714;28;20212;-79
2022/04/02 00:41:06;;;;;;;3.58;3.05;;;5.60;99.90;;;;;;5064968;28;20223;-79
2022/04/02 00:43:36;;;;;;;3.58;3.30;;;5.70;99.90;;;;;;5068178;28;20570;-78
2022/04/02 00:46:07;;;;;;;3.10;2.80;;;5.70;99.90;;;;;;5068558;28;20204;-78
2022/04/02 00:48:36;;;;;;;3.05;2.55;;;5.60;99.90;;;;;;5069001;28;20652;-78
2022/04/02 00:51:07;;;;;;;2.80;2.60;;;5.70;99.90;;;;;;5064122;28;20228;-79
2022/04/02 00:53:40;;;;;;;3.50;3.20;;;5.80;99.90;;;;;;5054354;28;20205;-79
2022/04/02 00:56:08;;;;;;;3.65;3.35;;;5.80;99.90;;;;;;5069257;28;20203;-78
2022/04/02 00:58:39;;;;;;;3.60;3.40;;;5.80;99.90;;;;;;5069699;28;20214;-79
2022/04/02 01:01:07;;;;;;;4.43;3.40;;;5.80;99.90;;;;;;5068041;28;20583;-79
2022/04/02 01:03:36;;;;;;;4.13;3.72;;;5.80;99.90;;;;;;5068637;28;20665;-78
2022/04/02 01:06:05;;;;;;;3.90;3.58;;;5.70;99.90;;;;;;5067000;28;20893;-79
2022/04/02 01:08:34;;;;;;;4.43;4.03;;;5.70;99.90;;;;;;5068086;28;20208;-79
2022/04/02 01:11:03;;;;;;;5.40;3.90;;;5.70;99.90;;;;;;5059893;28;20226;-79
2022/04/02 01:13:32;;;;;;;3.63;3.33;;;5.70;99.90;;;;;;5060641;28;20211;-79
2022/04/02 01:16:01;;;;;;;4.30;3.90;;;5.70;99.90;;;;;;5060863;28;20208;-79
2022/04/02 01:18:29;;;;;;;3.80;3.50;;;5.70;99.90;;;;;;5058102;28;20218;-80
2022/04/02 01:20:58;;;;;;;4.80;4.05;;;5.80;99.90;;;;;;5069123;28;20221;-80
2022/04/02 01:23:30;;;;;;;6.13;4.80;;;5.80;99.90;;;;;;5061020;28;20232;-78
2022/04/02 01:25:59;;;;;;;4.45;3.95;;;5.70;99.90;;;;;;5064852;28;20259;-79
2022/04/02 01:28:33;;;;;;;4.55;4.15;;;5.80;99.90;;;;;;5066311;28;20197;-80
2022/04/02 01:31:06;;;;;;;6.55;4.00;;;5.80;99.90;;;;;;5067231;28;20242;-79
2022/04/02 01:33:36;;;;;;;5.40;4.65;;;5.70;99.90;;;;;;5056902;28;20287;-78
2022/04/02 01:36:05;;;;;;;8.18;5.40;;;6.00;99.90;;;;;;5059068;28;20558;-79
2022/04/02 01:38:35;;;;;;;7.80;4.82;;;5.70;99.90;;;;;;5060848;28;20935;-82
2022/04/02 01:41:04;;;;;;;6.70;5.43;;;5.80;99.90;;;;;;5065907;28;20583;-78
2022/04/02 01:43:32;;;;;;;6.05;4.88;;;5.70;99.90;;;;;;5065748;28;20208;-80
2022/04/02 01:46:02;;;;;;;6.00;5.10;;;5.60;99.90;;;;;;5065069;28;20739;-80
2022/04/02 01:48:30;;;;;;;6.68;5.65;;;5.70;99.90;;;;;;5062278;28;20202;-81
2022/04/02 01:50:59;;;;;;;6.30;5.50;;;5.70;99.90;;;;;;5063317;28;20223;-80
2022/04/02 01:53:28;;;;;;;6.95;5.93;;;5.70;99.90;;;;;;5072298;28;20246;-80
2022/04/02 01:55:58;;;;;;;7.03;5.65;;;5.70;99.90;;;;;;5070183;28;20206;-79
2022/04/02 01:58:26;;;;;;;8.87;6.30;;;5.60;99.90;;;;;;5069134;28;20230;-78
2022/04/02 02:00:55;;;;;;;7.28;5.50;;;5.70;99.90;;;;;;5067157;28;20478;-78
2022/04/02 02:03:24;;;;;;;6.40;5.55;;;5.70;99.90;;;;;;5071397;28;20279;-78
2022/04/02 02:05:53;;;;;;;5.63;5.05;;;5.70;99.90;;;;;;5067036;28;20231;-77
2022/04/02 02:08:23;;;;;;;7.35;5.68;;;5.60;99.90;;;;;;5073152;28;20200;-78
2022/04/02 02:10:51;;;;;;;8.60;6.22;;;5.60;99.90;;;;;;5068010;28;20306;-78
2022/04/02 02:13:20;;;;;;;7.80;5.82;;;5.50;99.90;;;;;;5074007;28;20195;-79
2022/04/02 02:15:49;;;;;;;6.00;5.50;;;5.50;99.90;;;;;;5067903;28;20203;-80
2022/04/02 02:18:17;;;;;;;7.25;6.18;;;5.50;99.90;;;;;;5070041;28;20212;-79
2022/04/02 02:20:45;;;;;;;5.80;5.18;;;5.60;99.90;;;;;;5061492;28;20232;-79
2022/04/02 02:23:14;;;;;;;6.32;5.72;;;5.70;99.90;;;;;;5065074;28;20200;-78
2022/04/02 02:25:42;;;;;;;7.10;5.43;;;5.60;99.90;;;;;;5066105;28;20265;-79
2022/04/02 02:28:11;;;;;;;7.07;5.80;;;5.60;99.90;;;;;;5062268;28;20260;-79
2022/04/02 02:30:40;;;;;;;6.30;4.80;;;5.60;99.90;;;;;;5068924;28;20745;-79
2022/04/02 02:35:55;;;;;;;7.78;5.80;;;5.60;99.90;;;;;;5061031;28;20662;-78
2022/04/02 02:38:23;;;;;;;5.32;4.70;;;5.90;99.90;;;;;;5059762;28;20215;-79
2022/04/02 02:40:52;;;;;;;7.20;5.10;;;5.50;99.90;;;;;;5064913;28;20218;-80
2022/04/02 02:43:21;;;;;;;5.75;5.05;;;5.50;99.90;;;;;;5066235;28;20205;-78
2022/04/02 02:45:51;;;;;;;5.60;5.05;;;5.60;99.90;;;;;;5067479;28;20246;-79
2022/04/02 02:48:19;;;;;;;6.85;5.00;;;5.60;99.90;;;;;;5063663;28;20214;-83
2022/04/02 02:50:48;;;;;;;5.45;4.95;;;5.60;99.90;;;;;;5064399;28;20233;-79
2022/04/02 02:53:16;;;;;;;8.55;4.85;;;5.50;99.90;;;;;;5071774;28;20213;-80
2022/04/02 02:55:45;;;;;;;10.38;4.80;;;5.80;99.90;;;;;;5062789;28;20203;-82
2022/04/02 02:58:13;;;;;;;5.90;5.30;;;5.50;99.90;;;;;;5057713;28;20220;-78
2022/04/02 03:00:42;;;;;;;6.90;4.00;;;5.40;99.90;;;;;;5058909;28;20275;-79
2022/04/02 03:03:12;;;;;;;7.47;5.30;;;5.60;99.90;;;;;;5071518;28;20672;-78
2022/04/02 03:05:41;;;;;;;7.35;4.90;;;5.40;99.90;;;;;;5068608;28;20214;-77
2022/04/02 03:08:09;;;;;;;5.47;4.78;;;5.40;99.90;;;;;;5060986;28;20217;-79
2022/04/02 03:10:37;;;;;;;4.90;4.40;;;5.30;99.90;;;;;;5060997;28;20225;-79
2022/04/02 03:13:06;;;;;;;6.00;5.25;;;5.40;99.90;;;;;;5065762;28;20210;-78
2022/04/02 03:15:35;;;;;;;5.97;4.90;;;5.30;99.90;;;;;;5066195;28;20750;-79
2022/04/02 03:18:05;;;;;;;5.30;4.82;;;5.50;99.90;;;;;;5066869;28;20214;-79
2022/04/02 03:20:35;;;;;;;4.97;4.55;;;5.30;99.90;;;;;;5060504;28;21686;-79
2022/04/02 03:23:05;;;;;;;5.88;4.10;;;5.30;99.90;;;;;;5069598;28;20209;-78
2022/04/02 03:25:34;;;;;;;7.32;4.90;;;5.30;99.90;;;;;;5068747;28;20210;-78
2022/04/02 03:28:03;;;;;;;6.90;4.70;;;5.40;99.90;;;;;;5065435;28;20195;-78
2022/04/02 03:30:32;;;;;;;6.22;4.60;;;5.40;99.90;;;;;;5059992;28;20222;-79
2022/04/02 03:33:00;;;;;;;3.70;3.22;;;5.50;99.90;;;;;;5064096;28;20194;-78
2022/04/02 03:35:28;;;;;;;6.43;4.15;;;5.30;99.90;;;;;;5070885;28;20204;-78
2022/04/02 03:37:58;;;;;;;4.50;4.10;;;5.30;99.90;;;;;;5063335;28;20193;-77
2022/04/02 03:40:27;;;;;;;6.75;4.60;;;5.40;99.90;;;;;;5064597;28;20292;-78
2022/04/02 03:42:56;;;;;;;5.47;3.95;;;5.40;99.90;;;;;;5066039;28;20203;-79
2022/04/02 03:45:24;;;;;;;6.93;4.78;;;5.40;99.90;;;;;;5067752;28;20596;-80
2022/04/02 03:47:52;;;;;;;4.90;4.40;;;5.60;99.90;;;;;;5071612;28;20221;-80
2022/04/02 03:50:20;;;;;;;7.05;4.05;;;5.30;99.90;;;;;;5070974;28;20226;-79
2022/04/02 03:52:49;;;;;;;5.90;3.88;;;5.20;99.90;;;;;;5068218;28;20646;-78
2022/04/02 03:55:18;;;;;;;3.85;3.33;;;5.40;99.90;;;;;;5062818;28;20195;-78
2022/04/02 03:57:49;;;;;;;3.50;3.30;;;5.30;99.90;;;;;;5056485;28;20222;-79
2022/04/02 04:00:19;;;;;;;4.47;3.85;;;5.30;99.90;;;;;;5066866;28;20245;-78
2022/04/02 04:02:48;;;;;;;4.50;4.10;;;5.40;99.90;;;;;;5061526;28;20195;-80
2022/04/02 04:05:17;;;;;;;5.00;3.30;;;5.60;99.90;;;;;;5062422;28;20194;-79
2022/04/02 04:07:45;;;;;;;6.88;3.55;;;5.30;99.90;;;;;;5066992;28;20199;-80
2022/04/02 04:10:13;;;;;;;4.38;3.00;;;5.20;99.90;;;;;;5063042;28;20875;-80
2022/04/02 04:12:48;;;;;;;3.40;3.10;;;5.50;99.90;;;;;;5066284;28;20234;-79
2022/04/02 04:15:16;;;;;;;8.45;4.03;;;5.20;99.90;;;;;;5066484;28;20217;-78
2022/04/02 04:17:44;;;;;;;4.55;2.88;;;5.20;99.90;;;;;;5067246;28;20230;-82
2022/04/02 04:20:13;;;;;;;3.90;3.10;;;5.10;99.90;;;;;;5066886;28;20236;-79
2022/04/02 04:22:41;;;;;;;5.15;3.60;;;5.10;99.90;;;;;;5063467;28;20202;-78
2022/04/02 04:25:10;;;;;;;3.55;2.85;;;5.10;99.90;;;;;;5064934;28;20207;-80
2022/04/02 04:27:39;;;;;;;4.32;2.58;;;5.20;99.90;;;;;;5060098;28;20653;-79
2022/04/02 04:30:10;;;;;;;3.78;3.40;;;5.10;99.90;;;;;;5068742;28;20257;-77
2022/04/02 04:32:39;;;;;;;7.40;3.60;;;5.00;99.90;;;;;;5067763;28;20217;-80
2022/04/02 04:35:08;;;;;;;7.78;3.20;;;5.10;99.90;;;;;;5062894;28;20199;-79
2022/04/02 04:37:37;;;;;;;8.13;3.50;;;5.00;99.90;;;;;;5071096;28;20678;-80
2022/04/02 04:40:06;;;;;;;8.65;3.42;;;5.20;99.90;;;;;;5065591;28;20230;-80
2022/04/02 04:42:34;;;;;;;3.28;2.60;;;5.00;99.90;;;;;;5063974;28;20204;-80
2022/04/02 04:45:03;;;;;;;7.47;3.67;;;5.10;99.90;;;;;;5068483;28;20237;-78
2022/04/02 04:47:33;;;;;;;5.65;3.53;;;5.20;99.90;;;;;;5058203;28;20218;-76
2022/04/02 04:50:01;;;;;;;5.03;4.07;;;5.10;99.90;;;;;;5063525;28;20661;-78
2022/04/02 04:52:29;;;;;;;4.45;2.65;;;5.10;99.90;;;;;;5065541;28;20205;-79
2022/04/02 04:54:57;;;;;;;7.32;2.85;;;5.20;99.90;;;;;;5061562;28;20191;-79
2022/04/02 04:57:26;;;;;;;3.80;3.00;;;5.50;99.90;;;;;;5060011;28;20833;-78
2022/04/02 04:59:54;;;;;;;3.15;2.85;;;5.30;99.90;;;;;;5063945;28;20217;-77
2022/04/02 05:02:23;;;;;;;4.78;2.60;;;5.20;99.90;;;;;;5068300;28;20286;-77
2022/04/02 05:04:52;;;;;;;3.33;3.05;;;5.20;99.90;;;;;;5062549;28;20209;-79
2022/04/02 05:07:24;;;;;;;3.58;3.28;;;5.20;99.90;;;;;;5059373;28;20209;-79
2022/04/02 05:09:53;;;;;;;2.67;2.40;;;5.00;99.90;;;;;;5053799;28;20190;-80
2022/04/02 05:12:21;;;;;;;3.85;3.25;;;5.00;99.90;;;;;;5060577;28;20201;-79
2022/04/02 05:14:49;;;;;;;3.40;3.20;;;5.00;99.90;;;;;;5064648;28;20592;-79
2022/04/02 05:17:18;;;;;;;4.47;4.07;;;5.10;99.90;;;;;;5056215;28;20199;-78
2022/04/02 05:19:46;;;;;;;3.40;3.10;;;5.10;99.90;;;;;;5071528;28;20876;-78
2022/04/02 05:22:16;;;;;;;4.40;4.00;;;5.20;99.90;;;;;;5067829;28;20195;-80
2022/04/02 05:24:45;;;;;;;3.95;3.03;;;5.10;99.90;;;;;;5065899;28;20206;-79
2022/04/02 05:27:13;;;;;;;3.30;3.00;;;5.00;99.90;;;;;;5059649;28;20301;-80
2022/04/02 05:29:41;;;;;;;4.88;3.83;;;4.90;99.90;;;;;;5062533;28;20199;-75
2022/04/02 05:32:10;;;;;;;5.15;3.00;;;4.90;99.90;;;;;;5068479;28;20211;-79
2022/04/02 05:34:39;;;;;;;3.80;3.35;;;5.10;99.90;;;;;;5066930;28;20977;-80
2022/04/02 05:37:08;;;;;;;2.45;2.25;;;4.90;99.90;;;;;;5066202;28;20193;-80
2022/04/02 05:39:37;;;;;;;4.00;2.75;;;5.00;99.90;;;;;;5061505;28;20199;-78
2022/04/02 05:42:06;;;;;;;2.92;2.70;;;5.10;99.90;;;;;;5066339;28;20194;-79
2022/04/02 05:44:34;;;;;;;2.53;2.35;;;5.10;99.90;;;;;;5063739;28;20207;-77
2022/04/02 05:47:02;;;;;;;3.65;3.35;;;5.10;99.90;;;;;;5065687;28;20198;-77
2022/04/02 05:49:46;;;;;;;2.45;2.03;;;5.10;99.90;;;;;;5065457;28;20200;-79
2022/04/02 05:52:14;;;;;;;2.40;2.20;;;5.40;99.90;;;;;;5058657;28;20195;-79
2022/04/02 05:54:44;;;;;;;3.20;2.30;;;5.10;99.90;;;;;;5060631;28;20225;-81
2022/04/02 05:57:13;;;;;;;2.40;2.20;;;5.10;99.90;;;;;;5067721;28;20199;-79
2022/04/02 05:59:42;;;;;;;2.80;2.50;;;5.20;99.90;;;;;;5064413;28;20194;-79
2022/04/02 06:02:12;;;;;;;2.45;2.25;;;5.00;99.90;;;;;;5058830;28;20232;-78
2022/04/02 06:04:40;;;;;;;3.50;3.10;;;5.00;99.90;;;;;;5065418;28;21060;-79
2022/04/02 06:07:08;;;;;;;3.05;2.78;;;5.00;99.90;;;;;;5063050;28;20195;-81
2022/04/02 06:09:36;;;;;;;2.60;2.40;;;5.10;99.90;;;;;;5060619;28;20213;-80
2022/04/02 06:12:06;;;;;;;3.15;2.88;;;5.10;99.90;;;;;;5066275;28;20445;-81
2022/04/02 06:14:34;;;;;;;2.60;2.40;;;5.10;99.90;;;;;;5063263;28;20207;-80
2022/04/02 06:17:03;;;;;;;3.30;3.00;;;5.10;99.90;;;;;;5064355;28;20249;-79
2022/04/02 06:19:31;;;;;;;3.05;2.85;;;5.20;99.90;;;;;;5067035;28;20200;-81
2022/04/02 06:22:06;;;;;;;3.05;2.83;;;5.10;99.90;;;;;;5058799;28;20225;-80
2022/04/02 06:24:34;;;;;;;2.85;2.60;;;5.20;99.90;;;;;;5060762;28;20307;-80
2022/04/02 06:27:05;;;;;;;2.00;1.88;;;5.20;99.90;;;;;;5059389;28;20782;-79
2022/04/02 06:29:34;;;;;;;2.53;2.08;;;5.20;99.90;;;;;;5063564;28;20818;-80
2022/04/02 06:32:02;;;;;;;2.28;1.95;;;5.10;99.90;;;;;;5063207;28;20209;-81
2022/04/02 06:34:30;;;;;;;2.38;2.17;;;5.20;99.90;;;;;;5064306;28;21131;-80
2022/04/02 06:36:58;;;;;;;2.67;2.47;;;5.50;99.90;;;;;;5061906;28;20205;-81
2022/04/02 06:39:26;;;;;;;3.35;2.78;;;5.20;99.90;;;;;;5066873;28;20229;-83
2022/04/02 06:41:55;;;;;;;3.70;2.90;;;5.20;99.90;;;;;;5067737;28;20266;-81
2022/04/02 06:44:24;;;;;;;2.50;2.30;;;5.20;99.90;;;;;;5065095;28;20678;-79
2022/04/02 06:46:53;;;;;;;2.58;2.38;;;5.20;99.90;;;;;;5059966;28;20240;-80
2022/04/02 06:49:21;;;;;;;2.85;2.45;;;5.20;99.90;;;;;;5065335;28;20190;-79
2022/04/02 06:51:49;;;;;;;3.90;2.58;;;5.10;99.90;;;;;;5061489;28;20226;-78
2022/04/02 06:54:17;;;;;;;2.72;2.53;;;5.20;99.90;;;;;;5063236;28;20190;-79
2022/04/02 06:56:45;;;;;;;4.55;2.92;;;5.20;99.90;;;;;;5063043;28;20212;-81
2022/04/02 06:59:13;;;;;;;2.33;2.13;;;5.20;99.90;;;;;;5056764;28;20207;-81
2022/04/02 07:01:43;;;;;;;2.60;2.40;;;5.40;99.90;;;;;;5061325;28;20272;-80
2022/04/02 07:04:11;;;;;;;2.15;1.95;;;5.10;99.90;;;;;;5056578;28;20265;-79
2022/04/02 07:06:44;;;;;;;3.03;2.72;;;5.10;99.90;;;;;;5059519;28;20199;-79
2022/04/02 07:09:14;;;;;;;2.55;2.08;;;5.00;99.90;;;;;;5070072;28;20784;-80
2022/04/02 07:11:43;;;;;;;7.60;2.45;;;5.00;99.90;;;;;;5062196;28;20223;-78
2022/04/02 07:14:11;;;;;;;3.00;2.10;;;5.10;99.90;;;;;;5067902;28;20237;-77
2022/04/02 07:16:39;;;;;;;3.65;2.45;;;5.10;99.90;;;;;;5067199;28;20206;-79
2022/04/02 07:19:10;;;;;;;3.45;2.83;;;5.10;99.90;;;;;;5058874;28;20230;-78
2022/04/02 07:21:40;;;;;;;4.15;2.58;;;5.40;99.90;;;;;;5055008;28;20827;-79
2022/04/02 07:24:11;;;;;;;1.95;1.85;;;5.20;99.90;;;;;;5056872;28;20195;-82
2022/04/02 07:26:42;;;;;;;2.95;2.75;;;5.30;99.90;;;;;;5059824;28;20451;-77
2022/04/02 07:29:11;;;;;;;4.15;2.70;;;5.30;99.90;;;;;;5064545;28;20442;-79
2022/04/02 07:31:39;;;;;;;2.45;2.25;;;5.50;99.90;;;;;;5059732;28;20226;-79
2022/04/02 07:34:09;;;;;;;2.30;2.10;;;5.40;99.90;;;;;;5065819;28;20608;-79
2022/04/02 07:36:47;;;;;;;2.15;2.05;;;5.20;99.90;;;;;;5065426;28;20250;-79
2022/04/02 07:39:17;;;;;;;2.90;2.60;;;5.30;99.90;;;;;;5060503;28;20454;-76
2022/04/02 07:41:58;;;;;;;2.53;2.10;;;5.00;99.90;;;;;;5067459;28;20304;-82
2022/04/02 07:44:32;;;;;;;2.95;2.75;;;4.90;99.90;;;;;;5062538;28;20210;-85
2022/04/02 07:47:00;;;;;;;2.33;2.13;;;4.80;99.90;;;;;;5068448;28;20912;-82
2022/04/02 07:49:33;;;;;;;4.55;2.17;;;5.00;99.90;;;;;;5063479;28;20193;-83
2022/04/02 07:52:03;;;;;;;2.53;2.33;;;4.90;99.90;;;;;;5061421;28;20214;-81
2022/04/02 07:54:39;;;;;;;2.42;2.30;;;4.90;99.90;;;;;;5061873;28;20200;-82
2022/04/02 07:57:10;;;;;;;6.93;2.45;;;4.90;99.90;;;;;;5069984;28;20198;-84
2022/04/02 07:59:40;;;;;;;4.03;2.88;;;4.80;99.90;;;;;;5071007;28;20194;-81
2022/04/02 08:02:36;;;;;;;2.80;2.60;;;4.90;99.90;;;;;;5066069;28;20209;-83
2022/04/02 08:05:02;;;;;;;2.40;2.20;;;4.90;99.90;;;;;;5063494;28;20206;-82
2022/04/02 08:07:31;;;;;;;2.70;2.50;;;4.90;99.90;;;;;;5070779;28;20898;-84
2022/04/02 08:10:01;;;;;;;2.10;2.00;;;4.70;99.90;;;;;;5064516;28;20206;-85
2022/04/02 08:12:30;;;;;;;2.47;2.28;;;4.80;99.90;;;;;;5066141;28;20550;-83
2022/04/02 08:14:58;;;;;;;3.10;2.40;;;5.10;99.90;;;;;;5065416;28;21010;-83
2022/04/02 08:17:28;;;;;;;2.70;2.10;;;4.70;99.90;;;;;;5060830;28;20202;-84
2022/04/02 08:19:58;;;;;;;3.25;3.03;;;4.80;99.90;;;;;;5066711;28;20199;-83
2022/04/02 08:22:28;;;;;;;2.63;2.42;;;4.80;99.90;;;;;;5062980;28;20232;-85
2022/04/02 08:24:58;;;;;;;2.38;2.17;;;5.10;99.90;;;;;;5064636;28;20208;-85
2022/04/02 08:27:33;;;;;;;2.72;2.53;;;4.90;99.90;;;;;;5065787;28;20203;-84
2022/04/02 08:30:10;;;;;;;3.03;2.83;;;4.90;99.90;;;;;;5064746;28;20218;-85
2022/04/02 08:33:05;;;;;;;2.75;2.40;;;5.00;99.90;;;;;;5062492;28;20807;-86
2022/04/02 08:35:42;;;;;;;3.20;2.90;;;5.10;99.90;;;;;;5065699;28;20198;-83
2022/04/02 08:38:27;;;;;;;2.70;2.38;;;5.10;99.90;;;;;;5067821;28;20192;-84
2022/04/02 08:41:31;;;;;;;4.45;2.20;;;5.30;99.90;;;;;;5063295;28;20223;-84
2022/04/02 08:44:41;;;;;;;3.45;2.90;;;5.10;99.90;;;;;;5066324;28;20201;-83
2022/04/02 08:47:30;;;;;;;3.97;3.50;;;5.10;99.90;;;;;;5065531;28;20663;-85
2022/04/02 08:50:07;;;;;;;2.53;2.30;;;5.30;99.90;;;;;;5069710;28;20274;-84
2022/04/02 08:52:51;;;;;;;5.50;3.40;;;5.30;99.90;;;;;;5060973;28;20247;-83
2022/04/02 08:55:23;;;;;;;2.47;2.28;;;5.10;99.90;;;;;;5067250;28;20198;-83
2022/04/02 08:58:10;;;;;;;4.13;2.20;;;5.10;99.90;;;;;;5061392;28;20207;-79
2022/04/02 09:00:43;;;;;;;2.65;2.45;;;5.30;99.90;;;;;;5066382;28;20687;-81
2022/04/02 09:03:45;;;;;;;3.10;2.78;;;5.30;99.90;;;;;;5065608;28;20223;-82
2022/04/02 09:06:31;;;;;;;3.42;2.97;;;5.30;99.90;;;;;;5065104;28;20212;-80
2022/04/02 09:09:05;;;;;;;4.07;3.00;;;5.20;99.90;;;;;;5061798;28;20282;-82
2022/04/02 09:12:10;;;;;;;5.00;2.75;;;5.30;99.90;;;;;;5065841;28;20228;-79
2022/04/02 09:15:01;;;;;;;3.70;2.95;;;5.30;99.90;;;;;;5059675;28;20221;-82
2022/04/02 09:17:38;;;;;;;3.55;3.25;;;5.10;99.90;;;;;;5062940;28;20199;-82
2022/04/02 09:20:24;;;;;;;2.78;2.58;;;5.00;99.90;;;;;;5065526;28;20212;-80
2022/04/02 09:23:08;;;;;;;4.10;3.33;;;5.00;99.90;;;;;;5059787;28;20214;-82
2022/04/02 09:26:21;;;;;;;3.08;2.78;;;5.10;99.90;;;;;;5063674;28;20222;-83
2022/04/02 09:29:13;;;;;;;3.65;2.60;;;5.20;99.90;;;;;;5056478;28;20215;-83
2022/04/02 09:32:21;;;;;;;4.13;2.17;;;5.20;99.90;;;;;;5065355;28;20233;-84
2022/04/02 09:35:46;;;;;;;3.00;2.80;;;5.20;99.90;;;;;;5058635;28;20701;-81
2022/04/02 09:38:53;;;;;;;4.45;2.60;;;5.30;99.90;;;;;;4984672;28;20607;-81
2022/04/02 09:41:37;;;;;;;3.95;3.40;;;5.30;99.90;;;;;;5061346;28;20230;-81
2022/04/02 09:44:25;;;;;;;3.60;3.30;;;5.30;99.90;;;;;;5066085;28;20539;-79
2022/04/02 09:47:04;;;;;;;3.00;2.80;;;5.40;99.90;;;;;;5061224;28;20223;-80
2022/04/02 09:49:41;;;;;;;5.10;2.55;;;5.30;99.90;;;;;;5070217;28;20208;-78
2022/04/02 09:52:09;;;;;;;3.20;3.00;;;5.40;99.90;;;;;;5054173;28;20200;-81
2022/04/02 09:54:42;;;;;;;5.22;4.00;;;5.40;99.90;;;;;;5060049;28;20415;-81
2022/04/02 09:57:21;;;;;;;6.93;3.70;;;5.30;99.90;;;;;;5063258;28;20206;-81
2022/04/02 10:00:07;;;;;;;3.65;3.10;;;5.20;99.90;;;;;;5065457;28;20370;-80
2022/04/02 10:02:49;;;;;;;3.67;2.83;;;5.20;99.90;;;;;;5063606;28;20226;-81
2022/04/02 10:05:28;;;;;;;4.30;3.50;;;5.20;99.90;;;;;;5057876;28;20264;-81
2022/04/02 10:08:04;;;;;;;3.97;3.53;;;5.20;99.90;;;;;;5063444;28;20195;-82
2022/04/02 10:10:33;;;;;;;4.63;3.65;;;5.10;99.90;;;;;;5064331;28;20223;-81
2022/04/02 10:13:04;;;;;;;7.28;5.05;;;5.20;99.90;;;;;;5060572;28;20209;-80
2022/04/02 10:15:34;;;;;;;5.80;4.05;;;5.20;99.90;;;;;;5063962;28;20207;-81
2022/04/02 10:18:04;;;;;;;6.13;4.35;;;5.20;99.90;;;;;;5063188;28;20278;-81
2022/04/02 10:20:36;;;;;;;5.28;3.78;;;5.20;99.90;;;;;;5063289;28;20222;-81
2022/04/02 10:23:12;;;;;;;4.05;3.50;;;5.00;99.90;;;;;;5065657;28;20226;-82
2022/04/02 10:25:47;;;;;;;3.45;3.15;;;4.90;99.90;;;;;;5067788;28;20211;-79
2022/04/02 10:28:26;;;;;;;7.47;3.75;;;4.90;99.90;;;;;;5068300;28;20721;-81
2022/04/02 10:30:57;;;;;;;4.15;3.35;;;4.90;99.90;;;;;;5062219;28;20711;-81
2022/04/02 10:33:29;;;;;;;4.05;3.55;;;4.70;99.90;;;;;;5069660;28;20200;-79
2022/04/02 10:35:58;;;;;;;6.25;3.70;;;4.80;99.90;;;;;;5064731;28;20201;-80
2022/04/02 10:38:34;;;;;;;3.97;3.33;;;4.90;99.90;;;;;;5062648;28;20733;-81
2022/04/02 10:41:08;;;;;;;4.35;3.63;;;5.00;99.90;;;;;;5063411;28;20228;-81
2022/04/02 10:43:44;;;;;;;3.72;3.38;;;5.10;99.90;;;;;;5063448;28;20291;-81
2022/04/02 10:46:19;;;;;;;4.32;3.67;;;5.10;99.90;;;;;;5065029;28;20198;-81
2022/04/02 10:48:57;;;;;;;4.10;3.80;;;4.90;99.90;;;;;;5067671;28;20213;-81
2022/04/02 10:51:27;;;;;;;3.28;2.97;;;4.90;99.90;;;;;;5063210;28;20215;-81
2022/04/02 10:54:07;;;;;;;5.25;3.38;;;4.90;99.90;;;;;;5066406;28;20216;-83
2022/04/02 10:56:41;;;;;;;3.38;3.05;;;4.80;99.90;;;;;;5069589;28;20268;-81
2022/04/02 10:59:11;;;;;;;3.38;3.08;;;4.80;99.90;;;;;;5066397;28;20245;-82
2022/04/02 11:01:42;;;;;;;5.95;4.00;;;4.90;99.90;;;;;;5063708;28;20254;-80
2022/04/02 11:04:30;;;;;;;6.25;3.95;;;4.90;99.90;;;;;;5066325;28;20206;-81
2022/04/02 11:07:00;;;;;;;4.35;3.20;;;5.00;99.90;;;;;;5081019;28;20198;-80
2022/04/02 11:09:31;;;;;;;3.78;3.47;;;5.10;99.90;;;;;;5070279;28;20203;-81
2022/04/02 11:12:05;;;;;;;3.80;3.50;;;5.20;99.90;;;;;;5064386;28;20254;-81
2022/04/02 11:14:41;;;;;;;3.55;3.20;;;5.20;99.90;;;;;;5065234;28;20244;-82
2022/04/02 11:17:27;;;;;;;3.80;3.50;;;5.40;99.90;;;;;;5066190;28;20203;-82
2022/04/02 11:20:03;;;;;;;5.20;3.65;;;5.20;99.90;;;;;;5066747;28;20193;-81
2022/04/02 11:22:41;;;;;;;2.80;2.60;;;5.30;99.90;;;;;;5067781;28;20211;-83
2022/04/02 11:25:15;;;;;;;4.07;3.63;;;5.30;99.90;;;;;;5063755;28;20235;-81
2022/04/02 11:27:48;;;;;;;5.22;3.40;;;5.00;99.90;;;;;;5067927;28;20649;-80
2022/04/02 11:30:19;;;;;;;4.20;3.90;;;5.30;99.90;;;;;;5070352;28;20219;-80
2022/04/02 11:32:50;;;;;;;3.72;2.88;;;5.30;99.90;;;;;;5068946;28;20191;-82
2022/04/02 11:35:23;;;;;;;3.67;3.38;;;5.20;99.90;;;;;;5069737;28;20636;-83
2022/04/02 11:38:04;;;;;;;5.10;4.05;;;5.20;99.90;;;;;;5067651;28;20449;-83
2022/04/02 11:40:35;;;;;;;3.83;3.53;;;5.20;99.90;;;;;;5071349;28;20218;-82
2022/04/02 11:43:04;;;;;;;4.95;3.67;;;5.20;99.90;;;;;;5064053;28;20238;-80
2022/04/02 11:45:36;;;;;;;3.88;3.05;;;5.10;99.90;;;;;;5068130;28;20273;-83
2022/04/02 11:48:12;;;;;;;4.22;3.83;;;5.10;99.90;;;;;;5068944;28;20546;-83
2022/04/02 11:50:44;;;;;;;4.00;3.70;;;5.20;99.90;;;;;;5055372;28;20301;-84
2022/04/02 11:53:13;;;;;;;3.72;3.30;;;5.20;99.90;;;;;;5065620;28;20187;-82
2022/04/02 11:55:43;;;;;;;5.00;3.85;;;5.00;99.90;;;;;;5068889;28;20204;-83
2022/04/02 11:58:13;;;;;;;3.33;3.03;;;5.00;99.90;;;;;;5065570;28;20625;-82
2022/04/02 12:00:43;;;;;;;4.20;3.85;;;5.10;99.90;;;;;;5072133;28;20218;-81
2022/04/02 12:03:24;;;;;;;4.82;3.85;;;5.10;99.90;;;;;;5072266;28;20257;-81
2022/04/02 12:05:53;;;;;;;4.72;4.43;;;5.10;99.90;;;;;;5065660;28;20556;-84
2022/04/02 12:08:29;;;;;;;4.05;3.75;;;5.10;99.90;;;;;;5064237;28;20900;-82
2022/04/02 12:10:58;;;;;;;4.28;3.85;;;5.10;99.90;;;;;;5070718;28;20301;-83
2022/04/02 12:13:27;;;;;;;3.35;3.05;;;5.10;99.90;;;;;;5066409;28;20192;-83
2022/04/02 12:16:04;;;;;;;4.20;3.33;;;5.20;99.90;;;;;;5072736;28;20270;-83
2022/04/02 12:18:50;;;;;;;4.85;3.97;;;5.20;99.90;;;;;;5058451;28;20279;-83
2022/04/02 12:21:19;;;;;;;4.28;3.78;;;5.30;99.90;;;;;;5068273;28;20231;-83
2022/04/02 12:23:56;;;;;;;4.63;4.03;;;5.20;99.90;;;;;;5072893;28;20219;-83
2022/04/02 12:26:27;;;;;;;4.40;4.10;;;5.30;99.90;;;;;;5067526;28;20540;-83
2022/04/02 12:28:58;;;;;;;3.85;3.50;;;5.30;99.90;;;;;;5056413;28;20199;-82
2022/04/02 12:31:29;;;;;;;4.47;4.07;;;5.20;99.90;;;;;;5057979;28;20227;-82
2022/04/02 12:33:59;;;;;;;4.43;3.92;;;5.20;99.90;;;;;;5073491;28;20216;-82
2022/04/02 12:36:33;;;;;;;4.38;3.95;;;5.30;99.90;;;;;;5054576;28;20224;-82
2022/04/02 12:39:04;;;;;;;5.28;4.78;;;5.30;99.90;;;;;;5069643;28;20215;-82
2022/04/02 12:41:34;;;;;;;5.68;4.65;;;5.30;99.90;;;;;;5069716;28;20224;-84
2022/04/02 12:44:04;;;;;;;4.38;3.95;;;5.30;99.90;;;;;;5056262;28;20217;-82
2022/04/02 12:46:32;;;;;;;5.10;4.60;;;5.10;99.90;;;;;;5062693;28;20255;-82
2022/04/02 12:49:01;;;;;;;3.83;3.45;;;5.20;99.90;;;;;;5072796;28;20200;-82
2022/04/02 12:51:30;;;;;;;4.15;3.30;;;5.10;99.90;;;;;;5067549;28;20269;-83
2022/04/02 12:54:01;;;;;;;5.85;4.63;;;5.10;99.90;;;;;;5068774;28;20819;-83
2022/04/02 12:56:31;;;;;;;4.40;4.00;;;5.20;99.90;;;;;;5066725;28;20193;-83
2022/04/02 12:59:01;;;;;;;6.10;4.53;;;5.20;99.90;;;;;;5052380;28;20206;-83
2022/04/02 13:01:32;;;;;;;3.90;3.50;;;5.30;99.90;;;;;;5066103;28;20225;-83
2022/04/02 13:04:10;;;;;;;4.40;4.00;;;5.60;99.90;;;;;;5072053;28;20833;-83
2022/04/02 13:06:48;;;;;;;6.32;4.55;;;5.20;99.90;;;;;;5060242;28;20204;-83
2022/04/02 13:09:17;;;;;;;4.70;4.30;;;5.20;99.90;;;;;;5070490;28;20203;-83
2022/04/02 13:11:55;;;;;;;5.65;4.35;;;5.10;99.90;;;;;;5065781;28;20220;-82
2022/04/02 13:14:25;;;;;;;5.47;4.95;;;5.40;99.90;;;;;;5069608;28;20823;-85
2022/04/02 13:16:54;;;;;;;6.50;4.43;;;5.10;99.90;;;;;;5072149;28;20259;-82
2022/04/02 13:22:14;;;;;;;5.40;4.80;;;5.10;99.90;;;;;;5067106;28;20332;-81
2022/04/02 13:24:57;;;;;;;6.53;4.97;;;5.30;99.90;;;;;;5064759;28;20256;-86
2022/04/02 13:27:59;;;;;;;5.25;4.55;;;5.00;99.90;;;;;;5070348;28;20256;-83
2022/04/02 13:30:34;;;;;;;5.10;4.47;;;5.10;99.90;;;;;;5058590;28;20318;-82